sensor_id;sensor_type;location;lat;lon;timestamp;P1;durP1;ratioP1;P2;durP2;ratioP2
13171;SDS011;6651;53.200;10.432;2023-02-01T00:00:12;16.95;;;4.55;;
13171;SDS011;6651;53.200;10.432;2023-02-01T00:02:38;16.02;;;4.10;;
13171;SDS011;6651;53.200;10.432;2023-02-01T00:05:09;16.25;;;3.83;;
13171;SDS011;6651;53.200;10.432;2023-02-01T00:07:35;16.48;;;3.97;;
13171;SDS011;6651;53.200;10.432;2023-02-01T00:10:02;17.80;;;4.53;;
13171;SDS011;6651;53.200;10.432;2023-02-01T00:12:29;17.67;;;4.63;;
13171;SDS011;6651;53.200;10.432;2023-02-01T00:14:55;15.73;;;4.50;;
13171;SDS011;6651;53.200;10.432;2023-02-01T00:17:21;17.95;;;4.75;;
13171;SDS011;6651;53.200;10.432;2023-02-01T00:19:47;17.40;;;4.50;;
13171;SDS011;6651;53.200;10.432;2023-02-01T00:22:13;15.40;;;4.35;;
13171;SDS011;6651;53.200;10.432;2023-02-01T00:24:39;14.93;;;4.03;;
13171;SDS011;6651;53.200;10.432;2023-02-01T00:27:05;18.88;;;4.75;;
13171;SDS011;6651;53.200;10.432;2023-02-01T00:29:31;18.00;;;4.45;;
13171;SDS011;6651;53.200;10.432;2023-02-01T00:31:57;20.02;;;5.18;;
13171;SDS011;6651;53.200;10.432;2023-02-01T00:34:23;19.38;;;5.28;;
13171;SDS011;6651;53.200;10.432;2023-02-01T00:36:49;19.90;;;4.63;;
13171;SDS011;6651;53.200;10.432;2023-02-01T00:39:15;17.52;;;4.30;;
13171;SDS011;6651;53.200;10.432;2023-02-01T00:41:41;24.50;;;6.07;;
13171;SDS011;6651;53.200;10.432;2023-02-01T00:44:08;18.63;;;5.10;;
13171;SDS011;6651;53.200;10.432;2023-02-01T00:46:34;23.33;;;5.68;;
13171;SDS011;6651;53.200;10.432;2023-02-01T00:49:00;24.67;;;6.55;;
13171;SDS011;6651;53.200;10.432;2023-02-01T00:51:27;17.33;;;5.35;;
13171;SDS011;6651;53.200;10.432;2023-02-01T00:53:53;20.13;;;4.90;;
13171;SDS011;6651;53.200;10.432;2023-02-01T00:56:19;17.13;;;5.25;;
13171;SDS011;6651;53.200;10.432;2023-02-01T00:58:46;19.48;;;6.20;;
13171;SDS011;6651;53.200;10.432;2023-02-01T01:01:16;18.17;;;5.63;;
13171;SDS011;6651;53.200;10.432;2023-02-01T01:03:43;20.02;;;4.85;;
13171;SDS011;6651;53.200;10.432;2023-02-01T01:06:11;20.15;;;5.38;;
13171;SDS011;6651;53.200;10.432;2023-02-01T01:08:37;19.20;;;6.53;;
13171;SDS011;6651;53.200;10.432;2023-02-01T01:13:32;22.13;;;5.53;;
13171;SDS011;6651;53.200;10.432;2023-02-01T01:16:02;22.45;;;5.50;;
13171;SDS011;6651;53.200;10.432;2023-02-01T01:18:29;20.67;;;5.35;;
13171;SDS011;6651;53.200;10.432;2023-02-01T01:20:55;16.70;;;4.85;;
13171;SDS011;6651;53.200;10.432;2023-02-01T01:23:21;18.48;;;5.18;;
13171;SDS011;6651;53.200;10.432;2023-02-01T01:25:47;18.90;;;5.30;;
13171;SDS011;6651;53.200;10.432;2023-02-01T01:28:13;19.30;;;4.30;;
13171;SDS011;6651;53.200;10.432;2023-02-01T01:30:39;21.02;;;5.05;;
13171;SDS011;6651;53.200;10.432;2023-02-01T01:33:05;21.90;;;5.80;;
13171;SDS011;6651;53.200;10.432;2023-02-01T01:35:32;20.98;;;5.38;;
13171;SDS011;6651;53.200;10.432;2023-02-01T01:37:59;15.55;;;4.45;;
13171;SDS011;6651;53.200;10.432;2023-02-01T01:40:26;18.25;;;4.65;;
13171;SDS011;6651;53.200;10.432;2023-02-01T01:42:52;19.30;;;4.72;;
13171;SDS011;6651;53.200;10.432;2023-02-01T01:45:29;22.25;;;5.03;;
13171;SDS011;6651;53.200;10.432;2023-02-01T01:47:57;18.48;;;5.13;;
13171;SDS011;6651;53.200;10.432;2023-02-01T01:50:26;20.08;;;4.75;;
13171;SDS011;6651;53.200;10.432;2023-02-01T01:52:53;16.60;;;5.20;;
13171;SDS011;6651;53.200;10.432;2023-02-01T01:55:20;18.60;;;5.07;;
13171;SDS011;6651;53.200;10.432;2023-02-01T01:57:59;19.25;;;5.07;;
13171;SDS011;6651;53.200;10.432;2023-02-01T02:00:25;21.35;;;5.22;;
13171;SDS011;6651;53.200;10.432;2023-02-01T02:02:53;19.20;;;5.22;;
13171;SDS011;6651;53.200;10.432;2023-02-01T02:05:20;17.67;;;5.28;;
13171;SDS011;6651;53.200;10.432;2023-02-01T02:07:47;18.05;;;5.50;;
13171;SDS011;6651;53.200;10.432;2023-02-01T02:10:14;24.60;;;5.13;;
13171;SDS011;6651;53.200;10.432;2023-02-01T02:12:42;22.48;;;5.22;;
13171;SDS011;6651;53.200;10.432;2023-02-01T02:15:08;20.88;;;5.47;;
13171;SDS011;6651;53.200;10.432;2023-02-01T02:17:41;21.50;;;4.90;;
13171;SDS011;6651;53.200;10.432;2023-02-01T02:23:01;20.88;;;5.30;;
13171;SDS011;6651;53.200;10.432;2023-02-01T02:36:11;25.05;;;5.75;;
13171;SDS011;6651;53.200;10.432;2023-02-01T02:38:45;19.77;;;5.50;;
13171;SDS011;6651;53.200;10.432;2023-02-01T02:41:18;18.75;;;5.43;;
13171;SDS011;6651;53.200;10.432;2023-02-01T02:44:21;21.13;;;5.25;;
13171;SDS011;6651;53.200;10.432;2023-02-01T02:47:13;21.23;;;5.68;;
13171;SDS011;6651;53.200;10.432;2023-02-01T02:52:38;23.10;;;5.55;;
13171;SDS011;6651;53.200;10.432;2023-02-01T02:55:26;25.33;;;5.65;;
13171;SDS011;6651;53.200;10.432;2023-02-01T02:57:53;22.92;;;5.00;;
13171;SDS011;6651;53.200;10.432;2023-02-01T03:00:39;22.67;;;5.30;;
13171;SDS011;6651;53.200;10.432;2023-02-01T03:03:24;23.08;;;5.85;;
13171;SDS011;6651;53.200;10.432;2023-02-01T03:06:12;22.38;;;5.25;;
13171;SDS011;6651;53.200;10.432;2023-02-01T03:08:40;25.02;;;5.68;;
13171;SDS011;6651;53.200;10.432;2023-02-01T03:11:10;19.40;;;5.32;;
13171;SDS011;6651;53.200;10.432;2023-02-01T03:18:41;25.23;;;5.75;;
13171;SDS011;6651;53.200;10.432;2023-02-01T03:21:10;25.13;;;5.80;;
13171;SDS011;6651;53.200;10.432;2023-02-01T03:23:37;24.10;;;5.45;;
13171;SDS011;6651;53.200;10.432;2023-02-01T03:26:04;22.50;;;5.38;;
13171;SDS011;6651;53.200;10.432;2023-02-01T03:28:32;22.42;;;5.68;;
13171;SDS011;6651;53.200;10.432;2023-02-01T03:30:59;21.65;;;5.75;;
13171;SDS011;6651;53.200;10.432;2023-02-01T03:33:25;19.83;;;4.28;;
13171;SDS011;6651;53.200;10.432;2023-02-01T03:35:57;19.08;;;5.18;;
13171;SDS011;6651;53.200;10.432;2023-02-01T03:40:55;18.35;;;5.78;;
13171;SDS011;6651;53.200;10.432;2023-02-01T03:43:23;16.58;;;4.90;;
13171;SDS011;6651;53.200;10.432;2023-02-01T03:45:52;18.45;;;4.90;;
13171;SDS011;6651;53.200;10.432;2023-02-01T03:48:20;16.73;;;4.85;;
13171;SDS011;6651;53.200;10.432;2023-02-01T03:50:49;23.45;;;5.50;;
13171;SDS011;6651;53.200;10.432;2023-02-01T03:55:59;15.43;;;4.60;;
13171;SDS011;6651;53.200;10.432;2023-02-01T03:58:25;15.80;;;4.70;;
13171;SDS011;6651;53.200;10.432;2023-02-01T04:03:17;13.27;;;3.60;;
13171;SDS011;6651;53.200;10.432;2023-02-01T04:05:43;17.15;;;3.90;;
13171;SDS011;6651;53.200;10.432;2023-02-01T04:08:09;9.80;;;3.22;;
13171;SDS011;6651;53.200;10.432;2023-02-01T04:10:35;11.60;;;3.40;;
13171;SDS011;6651;53.200;10.432;2023-02-01T04:13:01;8.02;;;2.80;;
13171;SDS011;6651;53.200;10.432;2023-02-01T04:15:27;6.82;;;2.30;;
13171;SDS011;6651;53.200;10.432;2023-02-01T04:17:53;8.30;;;2.20;;
13171;SDS011;6651;53.200;10.432;2023-02-01T04:20:19;4.57;;;1.77;;
13171;SDS011;6651;53.200;10.432;2023-02-01T04:22:45;4.28;;;2.00;;
13171;SDS011;6651;53.200;10.432;2023-02-01T04:25:11;4.60;;;1.73;;
13171;SDS011;6651;53.200;10.432;2023-02-01T04:27:37;6.38;;;1.83;;
13171;SDS011;6651;53.200;10.432;2023-02-01T04:30:04;3.42;;;1.30;;
13171;SDS011;6651;53.200;10.432;2023-02-01T04:32:30;6.32;;;1.77;;
13171;SDS011;6651;53.200;10.432;2023-02-01T04:34:56;4.07;;;1.35;;
13171;SDS011;6651;53.200;10.432;2023-02-01T04:37:22;4.63;;;1.35;;
13171;SDS011;6651;53.200;10.432;2023-02-01T04:39:48;4.05;;;1.50;;
13171;SDS011;6651;53.200;10.432;2023-02-01T04:42:14;4.60;;;1.48;;
13171;SDS011;6651;53.200;10.432;2023-02-01T04:44:40;5.25;;;1.48;;
13171;SDS011;6651;53.200;10.432;2023-02-01T04:47:06;4.75;;;1.58;;
13171;SDS011;6651;53.200;10.432;2023-02-01T04:49:32;4.38;;;1.35;;
13171;SDS011;6651;53.200;10.432;2023-02-01T04:51:58;5.45;;;1.90;;
13171;SDS011;6651;53.200;10.432;2023-02-01T04:54:24;7.05;;;2.30;;
13171;SDS011;6651;53.200;10.432;2023-02-01T04:56:50;8.57;;;2.40;;
13171;SDS011;6651;53.200;10.432;2023-02-01T04:59:16;10.32;;;2.75;;
13171;SDS011;6651;53.200;10.432;2023-02-01T05:01:42;8.38;;;2.67;;
13171;SDS011;6651;53.200;10.432;2023-02-01T05:04:09;7.88;;;2.30;;
13171;SDS011;6651;53.200;10.432;2023-02-01T05:06:35;7.57;;;2.50;;
13171;SDS011;6651;53.200;10.432;2023-02-01T05:09:01;10.05;;;2.60;;
13171;SDS011;6651;53.200;10.432;2023-02-01T05:11:27;8.05;;;2.58;;
13171;SDS011;6651;53.200;10.432;2023-02-01T05:14:11;8.65;;;2.50;;
13171;SDS011;6651;53.200;10.432;2023-02-01T05:16:37;6.55;;;2.50;;
13171;SDS011;6651;53.200;10.432;2023-02-01T05:19:03;7.35;;;2.15;;
13171;SDS011;6651;53.200;10.432;2023-02-01T05:21:29;8.70;;;2.30;;
13171;SDS011;6651;53.200;10.432;2023-02-01T05:23:55;4.95;;;1.65;;
13171;SDS011;6651;53.200;10.432;2023-02-01T05:26:45;6.22;;;1.92;;
13171;SDS011;6651;53.200;10.432;2023-02-01T05:29:11;5.28;;;1.88;;
13171;SDS011;6651;53.200;10.432;2023-02-01T05:31:37;6.57;;;2.05;;
13171;SDS011;6651;53.200;10.432;2023-02-01T05:34:03;4.85;;;1.85;;
13171;SDS011;6651;53.200;10.432;2023-02-01T05:36:30;5.75;;;1.88;;
13171;SDS011;6651;53.200;10.432;2023-02-01T05:38:56;4.28;;;1.85;;
13171;SDS011;6651;53.200;10.432;2023-02-01T05:41:22;4.35;;;1.77;;
13171;SDS011;6651;53.200;10.432;2023-02-01T05:43:48;2.33;;;1.42;;
13171;SDS011;6651;53.200;10.432;2023-02-01T05:46:14;4.72;;;1.70;;
13171;SDS011;6651;53.200;10.432;2023-02-01T05:48:40;7.25;;;2.38;;
13171;SDS011;6651;53.200;10.432;2023-02-01T05:51:06;5.93;;;2.25;;
13171;SDS011;6651;53.200;10.432;2023-02-01T05:53:32;4.88;;;1.85;;
13171;SDS011;6651;53.200;10.432;2023-02-01T05:55:58;6.25;;;2.05;;
13171;SDS011;6651;53.200;10.432;2023-02-01T05:58:24;5.32;;;2.25;;
13171;SDS011;6651;53.200;10.432;2023-02-01T06:00:50;6.85;;;2.10;;
13171;SDS011;6651;53.200;10.432;2023-02-01T06:03:16;3.65;;;1.90;;
13171;SDS011;6651;53.200;10.432;2023-02-01T06:05:44;5.93;;;1.80;;
13171;SDS011;6651;53.200;10.432;2023-02-01T06:08:10;2.35;;;1.35;;
13171;SDS011;6651;53.200;10.432;2023-02-01T06:10:36;2.47;;;1.40;;
13171;SDS011;6651;53.200;10.432;2023-02-01T06:13:02;3.33;;;1.48;;
13171;SDS011;6651;53.200;10.432;2023-02-01T06:15:28;2.10;;;0.93;;
13171;SDS011;6651;53.200;10.432;2023-02-01T06:17:54;2.10;;;1.40;;
13171;SDS011;6651;53.200;10.432;2023-02-01T06:20:21;3.10;;;1.23;;
13171;SDS011;6651;53.200;10.432;2023-02-01T06:22:47;2.13;;;1.10;;
13171;SDS011;6651;53.200;10.432;2023-02-01T06:25:13;2.30;;;1.40;;
13171;SDS011;6651;53.200;10.432;2023-02-01T06:27:39;3.53;;;1.38;;
13171;SDS011;6651;53.200;10.432;2023-02-01T06:30:05;2.95;;;1.30;;
13171;SDS011;6651;53.200;10.432;2023-02-01T06:32:32;2.33;;;1.10;;
13171;SDS011;6651;53.200;10.432;2023-02-01T06:34:58;1.23;;;1.00;;
13171;SDS011;6651;53.200;10.432;2023-02-01T06:37:25;1.55;;;1.05;;
13171;SDS011;6651;53.200;10.432;2023-02-01T06:39:52;2.80;;;1.17;;
13171;SDS011;6651;53.200;10.432;2023-02-01T06:42:18;1.90;;;1.10;;
13171;SDS011;6651;53.200;10.432;2023-02-01T06:44:44;2.22;;;1.20;;
13171;SDS011;6651;53.200;10.432;2023-02-01T06:47:10;3.25;;;1.40;;
13171;SDS011;6651;53.200;10.432;2023-02-01T06:49:36;4.10;;;2.00;;
13171;SDS011;6651;53.200;10.432;2023-02-01T06:52:02;1.65;;;1.20;;
13171;SDS011;6651;53.200;10.432;2023-02-01T06:54:28;1.77;;;1.13;;
13171;SDS011;6651;53.200;10.432;2023-02-01T06:56:57;2.25;;;1.38;;
13171;SDS011;6651;53.200;10.432;2023-02-01T06:59:23;2.70;;;1.38;;
13171;SDS011;6651;53.200;10.432;2023-02-01T07:01:49;3.70;;;1.70;;
13171;SDS011;6651;53.200;10.432;2023-02-01T07:04:15;1.73;;;1.35;;
13171;SDS011;6651;53.200;10.432;2023-02-01T07:06:41;3.42;;;2.20;;
13171;SDS011;6651;53.200;10.432;2023-02-01T07:09:07;3.45;;;2.00;;
13171;SDS011;6651;53.200;10.432;2023-02-01T07:11:34;3.22;;;2.10;;
13171;SDS011;6651;53.200;10.432;2023-02-01T07:14:00;2.63;;;1.25;;
13171;SDS011;6651;53.200;10.432;2023-02-01T07:16:26;3.33;;;1.38;;
13171;SDS011;6651;53.200;10.432;2023-02-01T07:18:52;3.50;;;1.25;;
13171;SDS011;6651;53.200;10.432;2023-02-01T07:21:18;2.60;;;1.25;;
13171;SDS011;6651;53.200;10.432;2023-02-01T07:23:45;3.67;;;1.40;;
13171;SDS011;6651;53.200;10.432;2023-02-01T07:26:12;1.92;;;1.40;;
13171;SDS011;6651;53.200;10.432;2023-02-01T07:28:38;2.85;;;1.92;;
13171;SDS011;6651;53.200;10.432;2023-02-01T07:31:05;2.40;;;1.42;;
13171;SDS011;6651;53.200;10.432;2023-02-01T07:33:31;5.07;;;1.88;;
13171;SDS011;6651;53.200;10.432;2023-02-01T07:35:57;5.95;;;1.80;;
13171;SDS011;6651;53.200;10.432;2023-02-01T07:38:26;5.03;;;1.80;;
13171;SDS011;6651;53.200;10.432;2023-02-01T07:40:56;7.65;;;2.28;;
13171;SDS011;6651;53.200;10.432;2023-02-01T07:43:23;8.50;;;2.30;;
13171;SDS011;6651;53.200;10.432;2023-02-01T07:45:52;8.70;;;2.30;;
13171;SDS011;6651;53.200;10.432;2023-02-01T07:48:19;8.15;;;2.67;;
13171;SDS011;6651;53.200;10.432;2023-02-01T07:50:45;12.45;;;2.72;;
13171;SDS011;6651;53.200;10.432;2023-02-01T07:53:11;10.27;;;2.95;;
13171;SDS011;6651;53.200;10.432;2023-02-01T07:55:38;13.13;;;3.10;;
13171;SDS011;6651;53.200;10.432;2023-02-01T07:58:04;9.52;;;3.15;;
13171;SDS011;6651;53.200;10.432;2023-02-01T08:00:30;11.93;;;3.50;;
13171;SDS011;6651;53.200;10.432;2023-02-01T08:03:15;11.88;;;3.38;;
13171;SDS011;6651;53.200;10.432;2023-02-01T08:05:41;11.77;;;3.58;;
13171;SDS011;6651;53.200;10.432;2023-02-01T08:08:07;17.80;;;4.03;;
13171;SDS011;6651;53.200;10.432;2023-02-01T08:10:33;15.63;;;4.13;;
13171;SDS011;6651;53.200;10.432;2023-02-01T08:13:00;15.38;;;4.03;;
13171;SDS011;6651;53.200;10.432;2023-02-01T08:15:27;16.92;;;4.40;;
13171;SDS011;6651;53.200;10.432;2023-02-01T08:17:53;18.85;;;4.50;;
13171;SDS011;6651;53.200;10.432;2023-02-01T08:20:20;14.38;;;4.05;;
13171;SDS011;6651;53.200;10.432;2023-02-01T08:22:52;16.88;;;3.95;;
13171;SDS011;6651;53.200;10.432;2023-02-01T08:25:18;13.75;;;3.55;;
13171;SDS011;6651;53.200;10.432;2023-02-01T08:27:44;16.85;;;4.05;;
13171;SDS011;6651;53.200;10.432;2023-02-01T08:30:11;13.05;;;3.58;;
13171;SDS011;6651;53.200;10.432;2023-02-01T08:32:37;13.75;;;3.28;;
13171;SDS011;6651;53.200;10.432;2023-02-01T08:35:03;11.52;;;3.50;;
13171;SDS011;6651;53.200;10.432;2023-02-01T08:37:30;14.93;;;3.88;;
13171;SDS011;6651;53.200;10.432;2023-02-01T08:39:56;12.30;;;3.75;;
13171;SDS011;6651;53.200;10.432;2023-02-01T08:42:22;16.48;;;4.00;;
13171;SDS011;6651;53.200;10.432;2023-02-01T08:45:07;15.90;;;3.90;;
13171;SDS011;6651;53.200;10.432;2023-02-01T08:47:33;18.08;;;4.05;;
13171;SDS011;6651;53.200;10.432;2023-02-01T08:50:00;15.77;;;4.15;;
13171;SDS011;6651;53.200;10.432;2023-02-01T08:52:26;14.73;;;4.28;;
13171;SDS011;6651;53.200;10.432;2023-02-01T08:54:52;17.90;;;4.80;;
13171;SDS011;6651;53.200;10.432;2023-02-01T08:57:18;20.52;;;4.28;;
13171;SDS011;6651;53.200;10.432;2023-02-01T08:59:44;17.10;;;4.43;;
13171;SDS011;6651;53.200;10.432;2023-02-01T09:02:14;13.90;;;3.92;;
13171;SDS011;6651;53.200;10.432;2023-02-01T09:04:40;20.20;;;4.40;;
13171;SDS011;6651;53.200;10.432;2023-02-01T09:07:06;20.35;;;4.80;;
13171;SDS011;6651;53.200;10.432;2023-02-01T09:09:32;14.82;;;4.13;;
13171;SDS011;6651;53.200;10.432;2023-02-01T09:11:59;15.65;;;4.60;;
13171;SDS011;6651;53.200;10.432;2023-02-01T09:14:25;16.58;;;4.45;;
13171;SDS011;6651;53.200;10.432;2023-02-01T09:16:51;19.55;;;5.03;;
13171;SDS011;6651;53.200;10.432;2023-02-01T09:19:17;16.00;;;4.15;;
13171;SDS011;6651;53.200;10.432;2023-02-01T09:21:43;19.70;;;4.65;;
13171;SDS011;6651;53.200;10.432;2023-02-01T09:24:12;15.73;;;3.97;;
13171;SDS011;6651;53.200;10.432;2023-02-01T09:26:38;16.60;;;4.13;;
13171;SDS011;6651;53.200;10.432;2023-02-01T09:29:04;16.77;;;4.55;;
13171;SDS011;6651;53.200;10.432;2023-02-01T09:31:37;23.05;;;4.88;;
13171;SDS011;6651;53.200;10.432;2023-02-01T09:34:03;14.15;;;4.68;;
13171;SDS011;6651;53.200;10.432;2023-02-01T09:36:29;15.43;;;4.00;;
13171;SDS011;6651;53.200;10.432;2023-02-01T09:38:55;17.15;;;4.35;;
13171;SDS011;6651;53.200;10.432;2023-02-01T09:46:21;14.43;;;4.30;;
13171;SDS011;6651;53.200;10.432;2023-02-01T09:48:48;10.95;;;3.80;;
13171;SDS011;6651;53.200;10.432;2023-02-01T09:51:23;15.57;;;4.18;;
13171;SDS011;6651;53.200;10.432;2023-02-01T09:54:24;16.10;;;4.63;;
13171;SDS011;6651;53.200;10.432;2023-02-01T09:56:45;18.30;;;5.20;;
13171;SDS011;6651;53.200;10.432;2023-02-01T10:01:41;15.45;;;3.55;;
13171;SDS011;6651;53.200;10.432;2023-02-01T10:04:09;14.15;;;4.05;;
13171;SDS011;6651;53.200;10.432;2023-02-01T10:09:17;13.70;;;3.67;;
13171;SDS011;6651;53.200;10.432;2023-02-01T10:16:55;17.95;;;4.60;;
13171;SDS011;6651;53.200;10.432;2023-02-01T10:22:06;15.40;;;4.55;;
13171;SDS011;6651;53.200;10.432;2023-02-01T10:27:15;16.08;;;4.03;;
13171;SDS011;6651;53.200;10.432;2023-02-01T10:29:43;15.15;;;3.75;;
13171;SDS011;6651;53.200;10.432;2023-02-01T10:32:14;16.60;;;3.78;;
13171;SDS011;6651;53.200;10.432;2023-02-01T10:34:41;16.98;;;4.30;;
13171;SDS011;6651;53.200;10.432;2023-02-01T10:37:17;19.92;;;4.07;;
13171;SDS011;6651;53.200;10.432;2023-02-01T10:39:47;14.70;;;4.65;;
13171;SDS011;6651;53.200;10.432;2023-02-01T10:42:15;15.20;;;4.10;;
13171;SDS011;6651;53.200;10.432;2023-02-01T10:44:43;16.13;;;4.40;;
13171;SDS011;6651;53.200;10.432;2023-02-01T10:47:12;14.25;;;4.15;;
13171;SDS011;6651;53.200;10.432;2023-02-01T10:49:41;15.80;;;4.03;;
13171;SDS011;6651;53.200;10.432;2023-02-01T10:52:14;15.77;;;4.45;;
13171;SDS011;6651;53.200;10.432;2023-02-01T10:54:41;14.07;;;3.78;;
13171;SDS011;6651;53.200;10.432;2023-02-01T10:57:10;12.73;;;3.85;;
13171;SDS011;6651;53.200;10.432;2023-02-01T10:59:36;20.95;;;4.43;;
13171;SDS011;6651;53.200;10.432;2023-02-01T11:02:17;14.85;;;4.15;;
13171;SDS011;6651;53.200;10.432;2023-02-01T11:04:45;15.32;;;4.25;;
13171;SDS011;6651;53.200;10.432;2023-02-01T11:09:41;12.43;;;3.78;;
13171;SDS011;6651;53.200;10.432;2023-02-01T11:12:20;15.60;;;3.85;;
13171;SDS011;6651;53.200;10.432;2023-02-01T11:14:47;16.48;;;4.18;;
13171;SDS011;6651;53.200;10.432;2023-02-01T11:19:47;12.27;;;4.30;;
13171;SDS011;6651;53.200;10.432;2023-02-01T11:22:21;14.15;;;3.65;;
13171;SDS011;6651;53.200;10.432;2023-02-01T11:24:47;18.33;;;4.63;;
13171;SDS011;6651;53.200;10.432;2023-02-01T11:27:17;15.75;;;3.90;;
13171;SDS011;6651;53.200;10.432;2023-02-01T11:29:45;16.45;;;4.22;;
13171;SDS011;6651;53.200;10.432;2023-02-01T11:32:13;17.45;;;3.75;;
13171;SDS011;6651;53.200;10.432;2023-02-01T11:34:43;13.23;;;4.35;;
13171;SDS011;6651;53.200;10.432;2023-02-01T11:37:14;16.58;;;4.30;;
13171;SDS011;6651;53.200;10.432;2023-02-01T11:39:42;14.70;;;4.10;;
13171;SDS011;6651;53.200;10.432;2023-02-01T11:42:13;12.95;;;4.00;;
13171;SDS011;6651;53.200;10.432;2023-02-01T11:44:40;13.73;;;3.88;;
13171;SDS011;6651;53.200;10.432;2023-02-01T11:47:19;16.02;;;4.38;;
13171;SDS011;6651;53.200;10.432;2023-02-01T11:49:47;16.55;;;3.92;;
13171;SDS011;6651;53.200;10.432;2023-02-01T12:07:51;13.20;;;3.67;;
13171;SDS011;6651;53.200;10.432;2023-02-01T12:12:57;13.27;;;3.40;;
13171;SDS011;6651;53.200;10.432;2023-02-01T12:15:39;10.45;;;3.20;;
13171;SDS011;6651;53.200;10.432;2023-02-01T12:28:33;5.38;;;1.90;;
13171;SDS011;6651;53.200;10.432;2023-02-01T12:43:55;3.95;;;1.60;;
13171;SDS011;6651;53.200;10.432;2023-02-01T12:46:24;3.85;;;1.50;;
13171;SDS011;6651;53.200;10.432;2023-02-01T12:51:38;4.03;;;1.73;;
13171;SDS011;6651;53.200;10.432;2023-02-01T12:54:09;3.42;;;1.92;;
13171;SDS011;6651;53.200;10.432;2023-02-01T12:59:03;3.55;;;1.88;;
13171;SDS011;6651;53.200;10.432;2023-02-01T13:01:32;4.07;;;1.83;;
13171;SDS011;6651;53.200;10.432;2023-02-01T13:04:05;3.95;;;1.35;;
13171;SDS011;6651;53.200;10.432;2023-02-01T13:06:50;3.80;;;1.77;;
13171;SDS011;6651;53.200;10.432;2023-02-01T13:11:47;3.58;;;2.10;;
13171;SDS011;6651;53.200;10.432;2023-02-01T13:16:45;3.15;;;1.70;;
13171;SDS011;6651;53.200;10.432;2023-02-01T13:19:18;4.15;;;1.80;;
13171;SDS011;6651;53.200;10.432;2023-02-01T13:21:46;1.98;;;1.50;;
13171;SDS011;6651;53.200;10.432;2023-02-01T13:26:45;2.20;;;1.27;;
13171;SDS011;6651;53.200;10.432;2023-02-01T13:29:11;3.58;;;2.03;;
13171;SDS011;6651;53.200;10.432;2023-02-01T13:42:57;0.73;;;0.60;;
13171;SDS011;6651;53.200;10.432;2023-02-01T13:45:22;0.30;;;0.30;;
13171;SDS011;6651;53.200;10.432;2023-02-01T13:47:50;0.70;;;0.55;;
13171;SDS011;6651;53.200;10.432;2023-02-01T13:52:51;0.60;;;0.60;;
13171;SDS011;6651;53.200;10.432;2023-02-01T13:57:47;0.77;;;0.28;;
13171;SDS011;6651;53.200;10.432;2023-02-01T14:00:24;1.40;;;0.93;;
13171;SDS011;6651;53.200;10.432;2023-02-01T14:03:01;0.30;;;0.30;;
13171;SDS011;6651;53.200;10.432;2023-02-01T14:10:47;0.47;;;0.47;;
13171;SDS011;6651;53.200;10.432;2023-02-01T14:13:29;0.60;;;0.60;;
13171;SDS011;6651;53.200;10.432;2023-02-01T14:23:44;1.30;;;0.52;;
13171;SDS011;6651;53.200;10.432;2023-02-01T14:26:11;1.85;;;0.77;;
13171;SDS011;6651;53.200;10.432;2023-02-01T14:28:40;2.65;;;1.00;;
13171;SDS011;6651;53.200;10.432;2023-02-01T14:34:11;3.35;;;1.58;;
13171;SDS011;6651;53.200;10.432;2023-02-01T14:36:42;3.20;;;0.90;;
13171;SDS011;6651;53.200;10.432;2023-02-01T14:39:18;3.55;;;1.42;;
13171;SDS011;6651;53.200;10.432;2023-02-01T14:41:45;3.50;;;1.25;;
13171;SDS011;6651;53.200;10.432;2023-02-01T14:44:13;4.00;;;1.30;;
13171;SDS011;6651;53.200;10.432;2023-02-01T14:49:28;5.82;;;1.70;;
13171;SDS011;6651;53.200;10.432;2023-02-01T14:51:55;5.43;;;1.60;;
13171;SDS011;6651;53.200;10.432;2023-02-01T14:54:22;3.90;;;1.65;;
13171;SDS011;6651;53.200;10.432;2023-02-01T14:56:48;8.30;;;1.60;;
13171;SDS011;6651;53.200;10.432;2023-02-01T14:59:16;6.57;;;1.80;;
13171;SDS011;6651;53.200;10.432;2023-02-01T15:01:52;6.90;;;1.92;;
13171;SDS011;6651;53.200;10.432;2023-02-01T15:04:19;7.70;;;1.92;;
13171;SDS011;6651;53.200;10.432;2023-02-01T15:09:32;8.80;;;3.00;;
13171;SDS011;6651;53.200;10.432;2023-02-01T15:14:26;6.13;;;1.92;;
13171;SDS011;6651;53.200;10.432;2023-02-01T15:16:52;6.50;;;3.10;;
13171;SDS011;6651;53.200;10.432;2023-02-01T15:19:19;5.07;;;2.03;;
13171;SDS011;6651;53.200;10.432;2023-02-01T15:21:47;4.22;;;1.70;;
13171;SDS011;6651;53.200;10.432;2023-02-01T15:24:14;6.97;;;1.88;;
13171;SDS011;6651;53.200;10.432;2023-02-01T15:26:44;6.07;;;1.77;;
13171;SDS011;6651;53.200;10.432;2023-02-01T15:29:11;4.60;;;1.60;;
13171;SDS011;6651;53.200;10.432;2023-02-01T15:31:38;4.03;;;2.08;;
13171;SDS011;6651;53.200;10.432;2023-02-01T15:34:05;4.40;;;1.70;;
13171;SDS011;6651;53.200;10.432;2023-02-01T15:36:32;6.32;;;1.90;;
13171;SDS011;6651;53.200;10.432;2023-02-01T15:42:00;4.13;;;1.70;;
13171;SDS011;6651;53.200;10.432;2023-02-01T15:44:34;10.15;;;2.25;;
13171;SDS011;6651;53.200;10.432;2023-02-01T15:47:06;5.00;;;2.15;;
13171;SDS011;6651;53.200;10.432;2023-02-01T15:49:36;6.35;;;2.28;;
13171;SDS011;6651;53.200;10.432;2023-02-01T15:52:03;7.68;;;2.45;;
13171;SDS011;6651;53.200;10.432;2023-02-01T15:54:35;5.82;;;2.33;;
13171;SDS011;6651;53.200;10.432;2023-02-01T15:59:41;6.32;;;2.28;;
13171;SDS011;6651;53.200;10.432;2023-02-01T16:05:25;8.45;;;3.20;;
13171;SDS011;6651;53.200;10.432;2023-02-01T16:08:01;8.30;;;2.60;;
13171;SDS011;6651;53.200;10.432;2023-02-01T16:10:29;7.38;;;2.75;;
13171;SDS011;6651;53.200;10.432;2023-02-01T16:12:55;8.63;;;3.50;;
13171;SDS011;6651;53.200;10.432;2023-02-01T16:15:28;11.10;;;3.28;;
13171;SDS011;6651;53.200;10.432;2023-02-01T16:17:55;13.60;;;6.82;;
13171;SDS011;6651;53.200;10.432;2023-02-01T16:20:21;9.23;;;3.20;;
13171;SDS011;6651;53.200;10.432;2023-02-01T16:22:47;9.60;;;2.88;;
13171;SDS011;6651;53.200;10.432;2023-02-01T16:25:13;8.13;;;2.97;;
13171;SDS011;6651;53.200;10.432;2023-02-01T16:27:41;7.57;;;2.80;;
13171;SDS011;6651;53.200;10.432;2023-02-01T16:30:07;11.23;;;3.25;;
13171;SDS011;6651;53.200;10.432;2023-02-01T16:32:35;9.73;;;2.97;;
13171;SDS011;6651;53.200;10.432;2023-02-01T16:35:03;10.05;;;2.72;;
13171;SDS011;6651;53.200;10.432;2023-02-01T16:37:30;10.10;;;2.63;;
13171;SDS011;6651;53.200;10.432;2023-02-01T16:39:58;10.57;;;3.22;;
13171;SDS011;6651;53.200;10.432;2023-02-01T16:42:24;12.60;;;3.55;;
13171;SDS011;6651;53.200;10.432;2023-02-01T16:44:50;12.63;;;3.20;;
13171;SDS011;6651;53.200;10.432;2023-02-01T16:47:17;7.30;;;2.80;;
13171;SDS011;6651;53.200;10.432;2023-02-01T16:49:44;11.95;;;2.97;;
13171;SDS011;6651;53.200;10.432;2023-02-01T16:52:14;10.48;;;3.00;;
13171;SDS011;6651;53.200;10.432;2023-02-01T16:54:41;8.85;;;3.03;;
13171;SDS011;6651;53.200;10.432;2023-02-01T16:57:10;12.15;;;3.10;;
13171;SDS011;6651;53.200;10.432;2023-02-01T16:59:37;11.55;;;2.90;;
13171;SDS011;6651;53.200;10.432;2023-02-01T17:02:03;12.38;;;2.85;;
13171;SDS011;6651;53.200;10.432;2023-02-01T17:04:29;11.57;;;3.70;;
13171;SDS011;6651;53.200;10.432;2023-02-01T17:06:55;13.98;;;3.97;;
13171;SDS011;6651;53.200;10.432;2023-02-01T17:09:23;13.73;;;3.50;;
13171;SDS011;6651;53.200;10.432;2023-02-01T17:11:50;13.65;;;3.22;;
13171;SDS011;6651;53.200;10.432;2023-02-01T17:14:17;12.23;;;3.28;;
13171;SDS011;6651;53.200;10.432;2023-02-01T17:16:44;12.93;;;3.47;;
13171;SDS011;6651;53.200;10.432;2023-02-01T17:19:12;15.52;;;4.57;;
13171;SDS011;6651;53.200;10.432;2023-02-01T17:21:44;22.65;;;8.88;;
13171;SDS011;6651;53.200;10.432;2023-02-01T17:24:14;25.75;;;8.10;;
13171;SDS011;6651;53.200;10.432;2023-02-01T17:26:41;33.28;;;10.95;;